• Join FlightAware (Why Join?)
  • Login
  • US Flag 
 
03:27PM EST


 

Airport Tracker/Info


-or-


 

Live Flight TrackerFlight Track Log ✈ FLG3800 ✈ 19-05-2013 ✈ KDTW - KBTV

Flight Track Log - Related Links

Times and Time Zones

All times are in EDT time to prevent confusion due to time zone crossing. See the FLG3800 flight status page for this flight to view local times or setup timezone preferences in your user account.

Time Position Orientation Groundspeed Altitude Reporting Facility
EDT Latitude Longitude Course Direction KTS MPH feet Rate Location/Type
09:42PM 42.2036 -83.3556 90° East 144 166 1,400  Level Cleveland Center
09:43PM 42.1514 -83.3589 183° South 193 222 3,300 1,740 Climbing Cleveland Center
09:44PM 42.1064 -83.3233 150° Southeast 260 299 5,200 2,040 Climbing Cleveland Center
09:44PM 42.1183 -83.2678 74° East 307 353 6,600 2,400 Climbing Cleveland Center
09:45PM 42.3101 -82.7829 75° East  Level FlightAware Approximate
09:45PM 42.1475 -83.1794 66° East 307 353 9,100  Level Cleveland Center
09:46PM 42.3279 -82.6384 82° East  Level FlightAware Approximate
09:46PM 42.1808 -83.0742 67° East 300 345 10,800  Level Cleveland Center
09:47PM 42.3500 -82.4957 90° East  Level FlightAware Approximate
09:47PM 42.2189 -82.9581 66° East 319 367 11,800  Level Cleveland Center
09:48PM 42.2569 -82.8275 68° East 349 402 12,900 1,140 Climbing Cleveland Center
09:49PM 42.2969 -82.6914 68° East 369 425 14,200 1,260 Climbing Cleveland Center
09:50PM 42.3369 -82.5522 69° East 387 445 15,500 1,260 Climbing Cleveland Center
09:51PM 42.3644 -82.4069 76° East 387 445 16,800 1,260 Climbing Cleveland Center
09:52PM 42.3583 -82.2550 93° East 392 451 18,100 1,320 Climbing Cleveland Center
09:53PM 42.3542 -82.1031 92° East 399 459 19,500 1,260 Climbing Cleveland Center
09:54PM 42.3458 -81.9344 94° East 413 475 20,700 1,080 Climbing Cleveland Center
09:55PM 42.3392 -81.7825 93° East 413 475 21,700 720 Climbing Cleveland Center
09:56PM 42.3325 -81.6194 93° East 413 475 22,200 480 Climbing Cleveland Center
09:57PM 42.3236 -81.4564 94° East 423 487 22,700 480 Climbing Cleveland Center
09:58PM 42.3164 -81.2908 93° East 428 493 23,200 480 Climbing Cleveland Center
09:59PM 42.3089 -81.1250 93° East 433 498 23,700 480 Climbing Cleveland Center
10:00PM 42.2992 -80.9536 94° East 445 512 24,200 480 Climbing Cleveland Center
10:01PM 42.2892 -80.7853 95° East 445 512 24,700 420 Climbing Cleveland Center
10:02PM 42.2831 -80.6336 93° East 445 512 25,100 420 Climbing Cleveland Center
10:03PM 42.2725 -80.4653 95° East 445 512 25,600 540 Climbing Cleveland Center
10:04PM 42.2619 -80.2942 95° East 453 521 26,200 540 Climbing Cleveland Center
10:05PM 42.2531 -80.1231 94° East 453 521 26,700 420 Climbing Cleveland Center
10:06PM 42.2439 -79.9522 94° East 453 521 27,100 480 Climbing Cleveland Center
10:07PM 42.2303 -79.7811 96° East 458 527 27,700 480 Climbing Cleveland Center
10:08PM 42.2228 -79.6131 93° East 458 527 28,100 420 Climbing Cleveland Center
10:09PM 42.2108 -79.4422 95° East 458 527 28,600 540 Climbing Cleveland Center
10:10PM 42.1986 -79.2714 95° East 458 527 29,200 480 Climbing Cleveland Center
10:11PM 42.1964 -79.1006 91° East 458 527 29,600 420 Climbing Cleveland Center
10:12PM 42.2506 -78.9450 65° Northeast 435 501 30,100 540 Climbing Cleveland Center
10:13PM 42.3106 -78.7778 64° Northeast 441 507 30,700 420 Climbing Cleveland Center
10:14PM 42.3644 -78.6244 65° Northeast 446 513 31,000 120 Climbing Cleveland Center
10:15PM 42.4178 -78.4653 66° East 446 513 31,000  Level Cleveland Center
10:16PM 42.4711 -78.3086 65° Northeast 446 513 31,000  Level Cleveland Center
10:17PM 42.5261 -78.1461 65° Northeast 451 519 31,000  Level Cleveland Center
10:20PM 42.6497 -77.7853 65° Northeast 474 545 31,000  Level Boston Center
10:21PM 42.7056 -77.6175 66° East 474 545 31,000  Level Boston Center
10:22PM 42.7614 -77.4439 66° East 467 537 31,000  Level Boston Center
10:23PM 42.8164 -77.2783 66° East 467 537 31,000  Level Boston Center
10:24PM 42.8692 -77.1181 66° East 467 537 31,000  Level Boston Center
10:25PM 42.9214 -76.9575 66° East 467 537 31,000  Level Boston Center
10:26PM 42.9736 -76.7967 66° East 467 537 31,000  Level Boston Center
10:27PM 43.0256 -76.6328 67° East 467 537 31,000  Level Boston Center
10:28PM 43.0794 -76.4714 65° Northeast 467 537 31,000  Level Boston Center
10:29PM 43.1311 -76.3069 67° East 467 537 31,000  Level Boston Center
10:30PM 43.1925 -76.1483 62° Northeast 467 537 31,000  Level Boston Center
10:31PM 43.2761 -76.0167 49° Northeast 461 531 31,000  Level Boston Center
10:32PM 43.3750 -75.8481 51° Northeast 461 531 31,000  Level Boston Center
10:33PM 43.4561 -75.7097 51° Northeast 461 531 31,000  Level Boston Center
10:34PM 43.5353 -75.5650 53° Northeast 466 536 31,000  Level Boston Center
10:35PM 43.5997 -75.4078 60° Northeast 466 536 31,000 -960 Level Boston Center
10:36PM 43.6644 -75.2444 61° Northeast 471 542 29,100 -1,980 Descending Boston Center
10:37PM 43.7289 -75.0778 62° Northeast 477 549 27,100 -2,100 Descending Boston Center
10:38PM 43.7928 -74.9194 61° Northeast 477 549 24,900 -2,400 Descending Boston Center
10:39PM 43.8522 -74.7664 62° Northeast 462 532 22,400 -2,280 Descending Boston Center
10:40PM 43.9114 -74.6158 61° Northeast 455 524 20,400 -1,980 Descending Boston Center
10:41PM 43.9725 -74.4653 61° Northeast 449 517 18,500 -1,740 Descending Boston Center
10:42PM 44.0292 -74.3200 61° Northeast 437 503 17,000 -1,560 Descending Boston Center
10:43PM 44.0836 -74.1769 62° Northeast 422 486 15,400 -1,620 Descending Boston Center
10:44PM 44.1314 -74.0483 63° Northeast 390 449 13,800 -1,560 Descending Boston Center
10:45PM 44.1808 -73.9253 61° Northeast 365 420 12,300 -1,320 Descending Boston Center
10:46PM 44.2219 -73.8189 62° Northeast 355 409 11,200 -1,320 Descending Boston Center
10:47PM 44.2875 -73.7133 49° Northeast 334 384 9,700 -1,440 Descending Boston Center
10:48PM 44.3364 -73.6242 53° Northeast 297 342 8,400 -1,320 Descending Boston Center
10:49PM 44.3894 -73.5469 46° Northeast 281 323 7,100 -1,260 Descending Boston Center
10:50PM 44.4461 -73.4811 40° Northeast 263 303 5,900 -1,020 Descending Boston Center
10:51PM 44.4925 -73.4294 38° Northeast 252 290 5,100 -1,260 Descending Boston Center
10:52PM 44.5431 -73.3719 39° Northeast 231 266 3,400 -1,440 Descending Boston Center
10:53PM 44.5664 -73.3200 58° Northeast 187 215 2,300 -600 Descending Boston Center
10:54PM 44.5439 -73.2703 122° Southeast 132 152 2,200 -120 Descending Boston Center